Etusivu
METAR-TAF:

METAR-TAF

Lentoasemat :

Crookston, Minnesota, Yhdysvallat

Leveyspiiri: 47-51N, Pituuspiiri: 096-37W, korkeus merenpinnasta: 273 m

Tämänhetkinen sää

Tämä raportti tehtiin 24 minuuttia sitten, kello 10.16 UTC
Tuuli 7 kn etelästä/lounaasta
Lämpötila -6°C
Kosteus 93%
Ilmanpaine 1009 hPa
Näkyvyys: 16.1 km
Hajanaisia pilviä 2000 ft:n korkeudessa
Hajanaisia pilviä 3100 ft:n korkeudessa
Pilvistä 4500 ft:n korkeudessa

METAR: KCKN 131016Z AUTO 20007KT 10SM SCT020 SCT031 OVC045 M06/M07 A2980 RMK AO2

Aika: 04:40 (10:40 UTC)


TAF: puuttuu

Säähavainnot ja -ennusteet yli 4000 lentoasemalta (METAR- ja TAF-raportit).

Käytössä olevat sääasemat on merkitty karttaan keltaisilla ja punaisilla pisteillä.

Aseta hiiri pisteen päälle nähdäksesi sääaseman nimen.

Klikkaa sitten nähdäksesi säähavainnot ja -ennusteet.

Kartan vaihtaminen: klikkaa mustalla rastilla varustettuja vihreitä pisteitä, niin voit zoomata sisään; viivalla varustettua vihreää pistettä, niin voit zoomata ulos tai vihreitä nuolia, niin pääset viereisille kartoille.


METAR-TAF: